createdAt,value
2018-07-31T00:00:46.959Z,26.30
2018-07-31T00:03:15.301Z,26.30
2018-07-31T00:05:43.633Z,26.30
2018-07-31T00:08:11.984Z,26.30
2018-07-31T00:10:40.348Z,26.30
2018-07-31T00:13:08.666Z,26.30
2018-07-31T00:15:37.021Z,26.20
2018-07-31T00:20:33.536Z,26.20
2018-07-31T00:23:01.938Z,26.20
2018-07-31T00:25:30.400Z,26.20
2018-07-31T00:27:59.350Z,26.10
2018-07-31T00:30:27.703Z,26.00
2018-07-31T00:32:56.053Z,26.00
2018-07-31T00:35:24.486Z,26.00
2018-07-31T00:37:52.792Z,26.00
2018-07-31T00:40:21.135Z,26.00
2018-07-31T00:42:49.917Z,25.90
2018-07-31T00:45:18.241Z,25.80
2018-07-31T00:47:46.617Z,25.80
2018-07-31T00:50:14.956Z,25.80
2018-07-31T00:52:43.347Z,25.70
2018-07-31T00:55:11.665Z,25.70
2018-07-31T00:57:39.988Z,25.70
2018-07-31T01:00:08.331Z,25.70
2018-07-31T01:02:36.704Z,25.50
2018-07-31T01:05:05.284Z,25.50
2018-07-31T01:07:34.116Z,25.60
2018-07-31T01:10:02.509Z,25.60
2018-07-31T01:12:31.443Z,25.70
2018-07-31T01:14:59.786Z,25.60
2018-07-31T01:17:28.613Z,25.70
2018-07-31T01:19:56.964Z,25.60
2018-07-31T01:22:25.299Z,25.50
2018-07-31T01:24:53.745Z,25.40
2018-07-31T01:27:22.089Z,25.30
2018-07-31T01:29:50.455Z,25.10
2018-07-31T01:32:19.387Z,24.90
2018-07-31T01:34:47.836Z,24.70
2018-07-31T01:37:16.294Z,24.70
2018-07-31T01:39:44.695Z,24.80
2018-07-31T01:42:13.041Z,24.70
2018-07-31T01:44:42.375Z,24.60
2018-07-31T01:47:10.737Z,24.60
2018-07-31T01:49:39.664Z,24.50
2018-07-31T01:52:08.261Z,24.40
2018-07-31T01:54:36.673Z,24.40
2018-07-31T01:57:05.009Z,24.40
2018-07-31T01:59:33.443Z,24.50
2018-07-31T02:02:02.600Z,24.50
2018-07-31T02:04:31.041Z,24.50
2018-07-31T02:06:59.394Z,24.50
2018-07-31T02:09:27.819Z,24.60
2018-07-31T02:11:56.723Z,24.70
2018-07-31T02:14:25.050Z,24.70
2018-07-31T02:16:53.399Z,24.60
2018-07-31T02:19:22.209Z,24.40
2018-07-31T02:21:50.521Z,24.20
2018-07-31T02:24:18.939Z,24.10
2018-07-31T02:26:47.250Z,24.00
2018-07-31T02:29:20.272Z,23.90
2018-07-31T02:31:48.909Z,23.70
2018-07-31T02:34:17.253Z,23.70
2018-07-31T02:36:45.549Z,23.70
2018-07-31T02:39:13.891Z,23.60
2018-07-31T02:41:42.749Z,23.60
2018-07-31T02:44:11.117Z,23.60
2018-07-31T02:46:39.458Z,23.60
2018-07-31T02:49:07.799Z,23.70
2018-07-31T02:51:36.775Z,23.80
2018-07-31T02:54:05.152Z,23.70
2018-07-31T02:56:33.737Z,23.70
2018-07-31T02:59:02.103Z,23.70
2018-07-31T03:01:30.448Z,23.70
2018-07-31T03:03:58.768Z,23.70
2018-07-31T03:06:27.121Z,23.60
2018-07-31T03:08:55.475Z,23.60
2018-07-31T03:11:23.870Z,23.70
2018-07-31T03:13:52.585Z,23.70
2018-07-31T03:16:20.939Z,23.70
2018-07-31T03:18:49.397Z,23.80
2018-07-31T03:21:17.737Z,23.70
2018-07-31T03:23:46.181Z,23.60
2018-07-31T03:26:14.530Z,23.60
2018-07-31T03:28:42.866Z,23.70
2018-07-31T03:31:11.191Z,23.60
2018-07-31T03:33:39.530Z,23.60
2018-07-31T03:36:07.846Z,23.60
2018-07-31T03:38:36.199Z,23.60
2018-07-31T03:41:04.509Z,23.60
2018-07-31T03:43:32.834Z,23.60
2018-07-31T03:46:01.178Z,23.60
2018-07-31T03:48:29.513Z,23.70
2018-07-31T03:50:57.872Z,23.70
2018-07-31T03:53:26.224Z,23.70
2018-07-31T03:55:54.566Z,23.70
2018-07-31T03:58:22.952Z,23.70
2018-07-31T04:00:51.319Z,23.70
2018-07-31T04:03:19.668Z,23.60
2018-07-31T04:05:47.992Z,23.60
2018-07-31T04:08:16.307Z,23.60
2018-07-31T04:10:44.631Z,23.50
2018-07-31T04:13:12.986Z,23.50
2018-07-31T04:15:41.365Z,23.50
2018-07-31T04:18:09.690Z,23.50
2018-07-31T04:20:38.039Z,23.60
2018-07-31T04:23:06.353Z,23.60
2018-07-31T04:25:34.722Z,23.70
2018-07-31T04:28:03.063Z,23.80
2018-07-31T04:30:31.421Z,23.90
2018-07-31T04:32:59.784Z,23.80
2018-07-31T04:35:28.152Z,23.90
2018-07-31T04:37:56.501Z,23.90
2018-07-31T04:40:24.828Z,23.90
2018-07-31T04:42:53.225Z,23.90
2018-07-31T04:45:21.644Z,23.80
2018-07-31T04:47:49.999Z,23.90
2018-07-31T04:50:19.023Z,23.90
2018-07-31T04:52:47.371Z,24.00
2018-07-31T04:55:16.307Z,24.00
2018-07-31T04:57:44.724Z,23.90
2018-07-31T05:00:13.566Z,24.00
2018-07-31T05:02:41.891Z,24.10
2018-07-31T05:05:10.269Z,24.10
2018-07-31T05:07:39.801Z,24.30
2018-07-31T05:10:11.757Z,24.40
2018-07-31T05:12:40.879Z,24.40
2018-07-31T05:15:09.244Z,24.50
2018-07-31T05:17:38.496Z,24.50
2018-07-31T05:20:07.828Z,24.50
2018-07-31T05:22:36.299Z,24.50
2018-07-31T05:25:05.101Z,24.60
2018-07-31T05:27:34.100Z,24.80
2018-07-31T05:30:02.480Z,24.80
2018-07-31T05:34:58.909Z,24.70
2018-07-31T05:37:27.342Z,24.60
2018-07-31T05:39:56.217Z,24.70
2018-07-31T05:42:24.572Z,24.60
2018-07-31T05:44:53.529Z,24.70
2018-07-31T05:47:21.881Z,24.80
2018-07-31T05:49:50.227Z,24.80
2018-07-31T05:52:18.546Z,24.90
2018-07-31T05:54:46.897Z,24.90
2018-07-31T05:57:15.306Z,25.00
2018-07-31T05:59:43.642Z,25.00
2018-07-31T06:02:12.007Z,25.10
2018-07-31T06:04:40.335Z,25.30
2018-07-31T06:07:08.632Z,25.30
2018-07-31T06:09:37.013Z,25.40
2018-07-31T06:12:05.374Z,25.50
2018-07-31T06:14:33.722Z,25.40
2018-07-31T06:17:02.047Z,25.30
2018-07-31T06:19:30.423Z,25.30
2018-07-31T06:21:58.737Z,25.60
2018-07-31T06:24:27.085Z,25.90
2018-07-31T06:26:55.575Z,26.10
2018-07-31T06:29:24.004Z,26.30
2018-07-31T06:31:52.414Z,26.20
2018-07-31T06:34:20.758Z,26.20
2018-07-31T06:36:49.141Z,26.10
2018-07-31T06:39:17.490Z,26.20
2018-07-31T06:41:46.212Z,26.50
2018-07-31T06:44:14.653Z,26.70
2018-07-31T06:46:43.091Z,26.80
2018-07-31T06:49:11.459Z,26.80
2018-07-31T06:51:39.789Z,26.80
2018-07-31T06:54:08.207Z,26.90
2018-07-31T06:56:40.432Z,27.10
2018-07-31T06:59:08.770Z,27.40
2018-07-31T07:01:37.100Z,27.60
2018-07-31T07:04:05.549Z,27.80
2018-07-31T07:06:34.158Z,27.90
2018-07-31T07:09:02.558Z,28.00
2018-07-31T07:13:59.985Z,28.20
2018-07-31T07:16:28.412Z,28.60
2018-07-31T07:18:57.472Z,28.80
2018-07-31T07:21:25.806Z,28.80
2018-07-31T07:24:36.966Z,28.70
2018-07-31T07:27:05.873Z,28.80
2018-07-31T07:29:34.242Z,28.90
2018-07-31T07:32:02.600Z,28.90
2018-07-31T07:34:30.980Z,29.10
2018-07-31T07:36:59.506Z,29.20
2018-07-31T07:39:27.971Z,29.40
2018-07-31T07:41:56.356Z,29.60
2018-07-31T07:44:24.832Z,29.80
2018-07-31T07:47:01.460Z,29.80
2018-07-31T07:49:30.535Z,29.90
2018-07-31T07:51:59.497Z,30.20
2018-07-31T07:54:27.876Z,30.30
2018-07-31T07:56:56.239Z,30.70
2018-07-31T07:59:25.233Z,31.00
2018-07-31T08:01:53.682Z,31.10
2018-07-31T08:04:22.070Z,31.20
2018-07-31T08:06:50.535Z,31.40
2018-07-31T08:09:18.952Z,31.60
2018-07-31T08:11:47.332Z,31.90
2018-07-31T08:14:15.709Z,32.00
2018-07-31T08:16:44.069Z,32.10
2018-07-31T08:19:12.448Z,32.20
2018-07-31T08:21:40.776Z,32.50
2018-07-31T08:24:09.138Z,32.70
2018-07-31T08:26:37.487Z,32.90
2018-07-31T08:29:05.860Z,33.10
2018-07-31T08:31:34.253Z,33.10
2018-07-31T08:34:03.351Z,32.90
2018-07-31T08:36:31.726Z,33.30
2018-07-31T08:39:00.324Z,33.30
2018-07-31T08:41:28.789Z,33.40
2018-07-31T08:43:57.735Z,33.80
2018-07-31T08:46:26.304Z,34.00
2018-07-31T08:48:55.034Z,34.20
2018-07-31T08:51:23.653Z,34.60
2018-07-31T08:53:52.009Z,34.50
2018-07-31T08:56:20.900Z,34.50
2018-07-31T08:58:49.295Z,34.70
2018-07-31T09:01:18.297Z,34.90
2018-07-31T09:03:46.665Z,35.00
2018-07-31T09:06:15.052Z,35.10
2018-07-31T09:08:44.056Z,35.30
2018-07-31T09:11:12.480Z,35.70
2018-07-31T09:13:40.823Z,35.90
2018-07-31T09:16:09.214Z,35.80
2018-07-31T09:18:38.123Z,35.70
2018-07-31T09:21:06.562Z,35.90
2018-07-31T09:23:34.998Z,36.20
2018-07-31T09:26:03.544Z,36.20
2018-07-31T09:32:47.742Z,36.90
2018-07-31T09:35:16.428Z,36.90
2018-07-31T09:37:45.010Z,37.00
2018-07-31T09:40:13.696Z,37.30
2018-07-31T09:42:42.186Z,37.20
2018-07-31T09:45:10.467Z,36.70
2018-07-31T09:47:38.938Z,36.40
2018-07-31T09:50:07.386Z,36.60
2018-07-31T09:52:35.771Z,36.80
2018-07-31T09:55:05.089Z,36.90
2018-07-31T09:57:33.460Z,36.80
2018-07-31T10:00:02.045Z,36.60
2018-07-31T10:02:30.421Z,36.20
2018-07-31T10:04:58.791Z,36.40
2018-07-31T10:07:27.223Z,36.60
2018-07-31T10:09:55.714Z,36.80
2018-07-31T10:12:24.061Z,37.20
2018-07-31T10:14:52.465Z,37.60
2018-07-31T10:17:21.395Z,37.70
2018-07-31T10:19:49.843Z,37.60
2018-07-31T10:22:18.209Z,37.30
2018-07-31T10:24:47.089Z,36.80
2018-07-31T10:27:15.508Z,36.30
2018-07-31T10:29:43.936Z,35.80
2018-07-31T10:32:12.312Z,35.60
2018-07-31T10:34:40.994Z,35.40
2018-07-31T10:37:09.406Z,35.50
2018-07-31T10:39:37.841Z,35.40
2018-07-31T10:42:06.263Z,35.70
2018-07-31T10:44:34.730Z,36.10
2018-07-31T10:47:03.260Z,36.50
2018-07-31T10:49:31.600Z,36.80
2018-07-31T10:52:00.437Z,37.10
2018-07-31T10:54:29.384Z,37.30
2018-07-31T10:56:57.999Z,37.50
2018-07-31T10:59:26.418Z,37.70
2018-07-31T11:01:54.806Z,37.80
2018-07-31T11:04:23.448Z,37.50
2018-07-31T11:06:51.741Z,37.10
2018-07-31T11:09:20.162Z,36.70
2018-07-31T11:11:48.499Z,36.50
2018-07-31T11:14:17.678Z,36.70
2018-07-31T11:16:46.041Z,37.10
2018-07-31T11:19:14.395Z,37.50
2018-07-31T11:21:42.746Z,37.50
2018-07-31T11:26:39.326Z,37.10
2018-07-31T11:29:07.725Z,36.90
2018-07-31T11:31:36.098Z,36.80
2018-07-31T11:34:05.053Z,36.60
2018-07-31T11:36:33.413Z,36.60
2018-07-31T11:39:02.038Z,36.70
2018-07-31T11:41:30.520Z,37.00
2018-07-31T11:43:58.954Z,37.00
2018-07-31T11:46:27.353Z,36.90
2018-07-31T11:48:56.284Z,36.90
2018-07-31T11:51:24.908Z,37.10
2018-07-31T11:53:53.304Z,37.10
2018-07-31T11:56:23.092Z,37.30
2018-07-31T11:58:51.603Z,37.00
2018-07-31T12:01:20.004Z,36.90
2018-07-31T12:03:48.854Z,36.50
2018-07-31T12:06:17.505Z,36.20
2018-07-31T12:08:46.356Z,36.10
2018-07-31T12:11:14.824Z,36.10
2018-07-31T12:13:43.196Z,36.40
2018-07-31T12:16:12.248Z,36.70
2018-07-31T12:18:40.737Z,36.80
2018-07-31T12:21:11.439Z,36.70
2018-07-31T12:23:40.269Z,36.40
2018-07-31T12:26:08.688Z,36.50
2018-07-31T12:28:37.593Z,36.70
2018-07-31T12:31:06.031Z,36.70
2018-07-31T12:33:34.436Z,36.40
2018-07-31T12:36:02.834Z,36.30
2018-07-31T12:38:31.292Z,36.30
2018-07-31T12:40:59.612Z,36.30
2018-07-31T12:43:28.143Z,36.30
2018-07-31T12:45:56.513Z,36.10
2018-07-31T12:48:25.737Z,36.10
2018-07-31T13:03:55.172Z,35.80
2018-07-31T13:06:25.734Z,34.80
2018-07-31T13:08:54.831Z,34.90
2018-07-31T13:11:23.394Z,35.20
2018-07-31T13:13:51.839Z,35.40
2018-07-31T13:16:20.285Z,35.80
2018-07-31T13:18:48.710Z,36.10
2018-07-31T13:21:17.118Z,36.00
2018-07-31T13:23:46.374Z,36.20
2018-07-31T13:26:14.724Z,36.40
2018-07-31T13:28:43.116Z,36.50
2018-07-31T13:31:11.940Z,36.50
2018-07-31T13:33:40.346Z,36.60
2018-07-31T13:36:08.754Z,36.70
2018-07-31T13:38:42.420Z,36.50
2018-07-31T13:41:11.284Z,36.20
2018-07-31T13:43:39.792Z,36.10
2018-07-31T13:46:08.221Z,35.90
2018-07-31T13:48:36.627Z,35.70
2018-07-31T13:51:05.008Z,35.60
2018-07-31T13:53:33.412Z,35.50
2018-07-31T13:56:01.790Z,35.40
2018-07-31T13:58:30.997Z,35.20
2018-07-31T14:00:59.431Z,35.10
2018-07-31T14:03:27.833Z,35.10
2018-07-31T14:05:56.205Z,35.00
2018-07-31T14:08:25.432Z,35.10
2018-07-31T14:13:23.050Z,35.20
2018-07-31T14:15:51.431Z,35.30
2018-07-31T14:18:19.848Z,35.50
2018-07-31T14:20:48.306Z,35.70
2018-07-31T14:23:16.707Z,35.90
2018-07-31T14:25:45.870Z,36.10
2018-07-31T14:28:14.881Z,36.40
2018-07-31T14:30:43.331Z,36.50
2018-07-31T14:33:11.728Z,36.30
2018-07-31T14:35:40.139Z,36.20
2018-07-31T14:38:08.708Z,36.10
2018-07-31T14:40:37.370Z,36.10
2018-07-31T14:43:05.852Z,36.20
2018-07-31T14:45:34.752Z,36.20
2018-07-31T14:48:03.514Z,36.40
2018-07-31T14:50:32.060Z,36.40
2018-07-31T14:53:00.386Z,36.30
2018-07-31T14:55:28.763Z,36.20
2018-07-31T14:57:57.149Z,36.20
2018-07-31T15:00:25.567Z,35.90
2018-07-31T15:02:54.629Z,35.60
2018-07-31T15:05:23.054Z,35.40
2018-07-31T15:07:51.649Z,35.50
2018-07-31T15:10:20.061Z,35.70
2018-07-31T15:12:48.512Z,35.80
2018-07-31T15:15:16.955Z,35.70
2018-07-31T15:17:46.032Z,35.70
2018-07-31T15:20:14.424Z,35.70
2018-07-31T15:22:42.863Z,35.70
2018-07-31T15:25:11.258Z,35.60
2018-07-31T15:27:39.622Z,35.60
2018-07-31T15:30:09.020Z,35.60
2018-07-31T15:32:37.513Z,35.80
2018-07-31T15:35:06.033Z,36.00
2018-07-31T15:37:34.509Z,36.10
2018-07-31T15:40:02.929Z,36.00
2018-07-31T15:42:31.531Z,35.90
2018-07-31T15:44:59.946Z,35.80
2018-07-31T15:47:28.500Z,35.80
2018-07-31T15:49:57.032Z,35.70
2018-07-31T15:52:25.386Z,35.50
2018-07-31T15:54:53.894Z,35.40
2018-07-31T15:57:22.608Z,35.10
2018-07-31T15:59:50.972Z,35.10
2018-07-31T16:02:19.351Z,35.10
2018-07-31T16:04:47.742Z,35.00
2018-07-31T16:07:16.197Z,34.90
2018-07-31T16:09:44.822Z,34.90
2018-07-31T16:12:13.270Z,34.90
2018-07-31T16:14:48.306Z,34.80
2018-07-31T16:17:16.730Z,34.70
2018-07-31T16:19:45.115Z,34.60
2018-07-31T16:22:13.512Z,34.60
2018-07-31T16:24:41.914Z,34.30
2018-07-31T16:27:10.329Z,34.20
2018-07-31T16:29:38.707Z,34.10
2018-07-31T16:32:07.163Z,34.00
2018-07-31T16:34:38.718Z,33.90
2018-07-31T16:37:07.140Z,33.70
2018-07-31T16:42:04.104Z,33.80
2018-07-31T16:44:32.475Z,33.90
2018-07-31T16:49:29.048Z,33.80
2018-07-31T16:51:57.406Z,33.80
2018-07-31T16:54:25.853Z,33.70
2018-07-31T16:56:54.254Z,33.60
2018-07-31T16:59:22.647Z,33.60
2018-07-31T17:01:51.032Z,33.50
2018-07-31T17:04:19.380Z,33.40
2018-07-31T17:06:47.774Z,33.40
2018-07-31T17:09:16.139Z,33.20
2018-07-31T17:11:44.495Z,33.30
2018-07-31T17:14:13.001Z,33.30
2018-07-31T17:16:41.410Z,33.20
2018-07-31T17:21:38.521Z,33.10
2018-07-31T17:24:07.103Z,33.00
2018-07-31T17:26:35.529Z,32.90
2018-07-31T17:29:04.071Z,32.90
2018-07-31T17:31:32.485Z,32.90
2018-07-31T17:34:00.841Z,32.80
2018-07-31T17:36:29.236Z,32.80
2018-07-31T17:38:59.121Z,32.80
2018-07-31T17:41:27.512Z,32.80
2018-07-31T17:43:55.909Z,32.80
2018-07-31T17:46:24.229Z,32.80
2018-07-31T17:48:52.920Z,32.80
2018-07-31T17:51:21.328Z,32.80
2018-07-31T17:53:49.982Z,32.60
2018-07-31T17:56:19.427Z,32.60
2018-07-31T17:58:47.781Z,32.60
2018-07-31T18:01:16.478Z,32.60
2018-07-31T18:03:44.886Z,32.60
2018-07-31T18:06:13.305Z,32.50
2018-07-31T18:08:42.198Z,32.50
2018-07-31T18:11:10.588Z,32.40
2018-07-31T18:13:38.942Z,32.40
2018-07-31T18:16:07.411Z,32.30
2018-07-31T18:18:36.048Z,32.10
2018-07-31T18:21:04.442Z,32.00
2018-07-31T18:23:33.049Z,31.80
2018-07-31T18:26:01.429Z,31.50
2018-07-31T18:28:29.879Z,31.40
2018-07-31T18:30:58.267Z,31.20
2018-07-31T18:33:26.652Z,31.10
2018-07-31T18:35:55.025Z,31.00
2018-07-31T18:38:23.406Z,30.90
2018-07-31T18:40:51.885Z,30.80
2018-07-31T18:43:20.379Z,30.70
2018-07-31T18:45:48.783Z,30.60
2018-07-31T18:48:17.187Z,30.50
2018-07-31T18:50:45.628Z,30.50
2018-07-31T18:53:13.981Z,30.40
2018-07-31T18:55:42.371Z,30.30
2018-07-31T18:58:11.055Z,30.10
2018-07-31T19:00:39.459Z,30.00
2018-07-31T19:03:07.858Z,29.90
2018-07-31T19:05:36.233Z,30.00
2018-07-31T19:08:04.649Z,29.90
2018-07-31T19:10:33.020Z,29.90
2018-07-31T19:13:01.604Z,29.90
2018-07-31T19:15:30.008Z,29.90
2018-07-31T19:17:58.455Z,29.80
2018-07-31T19:20:26.876Z,29.90
2018-07-31T19:22:55.409Z,29.80
2018-07-31T19:25:23.793Z,29.70
2018-07-31T19:27:52.202Z,29.60
2018-07-31T19:30:20.585Z,29.60
2018-07-31T19:32:48.922Z,29.40
2018-07-31T19:35:17.323Z,29.20
2018-07-31T19:37:45.690Z,29.20
2018-07-31T19:40:14.101Z,29.20
2018-07-31T19:42:43.094Z,29.10
2018-07-31T19:45:11.492Z,29.10
2018-07-31T19:47:39.881Z,29.00
2018-07-31T19:50:08.445Z,28.90
2018-07-31T19:52:36.930Z,28.90
2018-07-31T19:55:05.403Z,28.90
2018-07-31T19:57:33.846Z,28.90
2018-07-31T20:00:02.259Z,28.90
2018-07-31T20:02:30.757Z,29.00
2018-07-31T20:04:59.147Z,28.90
2018-07-31T20:07:27.510Z,28.90
2018-07-31T20:09:55.963Z,28.70
2018-07-31T20:12:24.365Z,28.40
2018-07-31T20:14:52.799Z,28.30
2018-07-31T20:17:21.212Z,28.20
2018-07-31T20:19:49.607Z,28.10
2018-07-31T20:22:18.681Z,28.00
2018-07-31T20:24:47.115Z,28.00
2018-07-31T20:27:15.561Z,28.00
2018-07-31T20:29:43.944Z,28.00
2018-07-31T20:32:12.360Z,28.00
2018-07-31T20:34:41.152Z,28.10
2018-07-31T20:37:09.585Z,28.10
2018-07-31T20:39:37.957Z,28.00
2018-07-31T20:42:06.373Z,28.00
2018-07-31T20:44:34.787Z,28.00
2018-07-31T20:47:03.291Z,27.90
2018-07-31T20:49:31.573Z,27.80
2018-07-31T20:51:59.951Z,27.80
2018-07-31T20:54:28.317Z,27.70
2018-07-31T20:56:56.737Z,27.60
2018-07-31T20:59:25.593Z,27.60
2018-07-31T21:01:54.165Z,27.60
2018-07-31T21:04:22.684Z,27.50
2018-07-31T21:06:51.067Z,27.40
2018-07-31T21:09:19.416Z,27.40
2018-07-31T21:11:48.473Z,27.40
2018-07-31T21:14:17.410Z,27.40
2018-07-31T21:16:45.801Z,27.40
2018-07-31T21:19:14.192Z,27.40
2018-07-31T21:21:42.692Z,27.20
2018-07-31T21:24:11.121Z,27.10
2018-07-31T21:26:39.667Z,27.10
2018-07-31T21:29:08.055Z,27.00
2018-07-31T21:31:36.451Z,27.10
2018-07-31T21:34:04.841Z,27.20
2018-07-31T21:36:33.178Z,27.20
2018-07-31T21:39:01.517Z,27.10
2018-07-31T21:41:29.939Z,26.90
2018-07-31T21:43:58.297Z,26.90
2018-07-31T21:46:26.864Z,26.80
2018-07-31T21:48:55.216Z,26.80
2018-07-31T21:51:24.078Z,26.60
2018-07-31T21:53:52.485Z,26.60
2018-07-31T21:56:20.859Z,26.70
2018-07-31T21:58:49.322Z,26.50
2018-07-31T22:01:17.662Z,26.40
2018-07-31T22:03:46.061Z,26.30
2018-07-31T22:06:15.180Z,26.10
2018-07-31T22:08:43.540Z,26.10
2018-07-31T22:11:11.905Z,26.20
2018-07-31T22:13:40.449Z,26.10
2018-07-31T22:16:09.365Z,26.10
2018-07-31T22:18:37.791Z,26.10
2018-07-31T22:21:06.172Z,26.00
2018-07-31T22:23:34.524Z,26.00
2018-07-31T22:26:02.922Z,25.90
2018-07-31T22:28:31.283Z,26.00
2018-07-31T22:30:59.654Z,26.00
2018-07-31T22:33:28.005Z,26.00
2018-07-31T22:35:56.366Z,25.90
2018-07-31T22:38:24.717Z,25.80
2018-07-31T22:40:53.111Z,25.70
2018-07-31T22:43:21.456Z,25.70
2018-07-31T22:45:50.030Z,25.70
2018-07-31T22:48:18.354Z,25.60
2018-07-31T22:50:47.182Z,25.70
2018-07-31T22:53:15.521Z,25.60
2018-07-31T22:55:44.207Z,25.50
2018-07-31T22:58:12.635Z,25.40
2018-07-31T23:00:40.971Z,25.40
2018-07-31T23:03:10.059Z,25.40
2018-07-31T23:05:38.416Z,25.40
2018-07-31T23:08:06.806Z,25.40
2018-07-31T23:10:35.244Z,25.50
2018-07-31T23:13:04.332Z,25.30
2018-07-31T23:15:32.764Z,25.30
2018-07-31T23:18:01.353Z,25.30
2018-07-31T23:20:29.765Z,25.30
2018-07-31T23:22:58.233Z,25.30
2018-07-31T23:25:26.876Z,25.20
2018-07-31T23:27:55.394Z,25.20
2018-07-31T23:30:23.933Z,25.10
2018-07-31T23:32:52.382Z,25.10
2018-07-31T23:35:21.001Z,25.10
2018-07-31T23:37:49.726Z,25.10
2018-07-31T23:40:18.160Z,25.20
2018-07-31T23:42:46.628Z,25.20
2018-07-31T23:45:15.067Z,25.20
2018-07-31T23:47:43.493Z,25.20
2018-07-31T23:50:11.992Z,25.20
2018-07-31T23:52:40.407Z,25.20
2018-07-31T23:55:09.450Z,25.20
2018-07-31T23:57:37.853Z,25.10
